sensor_id;sensor_type;location;lat;lon;timestamp;pressure;altitude;pressure_sealevel;temperature;humidity
49835;BME280;35729;52.090;13.162;2023-04-25T00:00:06;100083.44;;;7.68;69.48
49835;BME280;35729;52.090;13.162;2023-04-25T00:02:35;100079.94;;;7.67;69.16
49835;BME280;35729;52.090;13.162;2023-04-25T00:05:04;100088.66;;;7.68;69.23
49835;BME280;35729;52.090;13.162;2023-04-25T00:07:34;100085.22;;;7.65;69.22
49835;BME280;35729;52.090;13.162;2023-04-25T00:10:06;100089.59;;;7.65;69.51
49835;BME280;35729;52.090;13.162;2023-04-25T00:12:36;100080.03;;;7.64;69.34
49835;BME280;35729;52.090;13.162;2023-04-25T00:15:06;100082.66;;;7.62;69.33
49835;BME280;35729;52.090;13.162;2023-04-25T00:17:34;100080.09;;;7.61;69.32
49835;BME280;35729;52.090;13.162;2023-04-25T00:20:04;100077.50;;;7.59;69.43
49835;BME280;35729;52.090;13.162;2023-04-25T00:22:34;100080.16;;;7.58;69.46
49835;BME280;35729;52.090;13.162;2023-04-25T00:25:06;100078.44;;;7.55;69.47
49835;BME280;35729;52.090;13.162;2023-04-25T00:27:35;100079.41;;;7.51;69.75
49835;BME280;35729;52.090;13.162;2023-04-25T00:30:05;100076.03;;;7.46;69.74
49835;BME280;35729;52.090;13.162;2023-04-25T00:32:34;100073.50;;;7.41;69.89
49835;BME280;35729;52.090;13.162;2023-04-25T00:35:03;100076.22;;;7.35;70.15
49835;BME280;35729;52.090;13.162;2023-04-25T00:37:32;100075.47;;;7.30;70.42
49835;BME280;35729;52.090;13.162;2023-04-25T00:40:01;100080.81;;;7.22;70.62
49835;BME280;35729;52.090;13.162;2023-04-25T00:42:34;100084.38;;;7.16;71.06
49835;BME280;35729;52.090;13.162;2023-04-25T00:45:05;100080.19;;;7.09;71.11
49835;BME280;35729;52.090;13.162;2023-04-25T00:47:35;100078.53;;;7.04;71.14
49835;BME280;35729;52.090;13.162;2023-04-25T00:50:05;100080.34;;;7.00;71.64
49835;BME280;35729;52.090;13.162;2023-04-25T00:52:34;100081.25;;;6.97;71.73
49835;BME280;35729;52.090;13.162;2023-04-25T00:55:03;100078.72;;;6.94;71.65
49835;BME280;35729;52.090;13.162;2023-04-25T00:57:34;100071.84;;;6.90;71.79
49835;BME280;35729;52.090;13.162;2023-04-25T01:00:04;100075.31;;;6.89;71.94
49835;BME280;35729;52.090;13.162;2023-04-25T01:02:35;100068.47;;;6.85;72.12
49835;BME280;35729;52.090;13.162;2023-04-25T01:05:04;100067.59;;;6.83;72.33
49835;BME280;35729;52.090;13.162;2023-04-25T01:07:33;100061.56;;;6.81;72.24
49835;BME280;35729;52.090;13.162;2023-04-25T01:10:02;100055.56;;;6.76;72.44
49835;BME280;35729;52.090;13.162;2023-04-25T01:12:34;100058.13;;;6.77;72.82
49835;BME280;35729;52.090;13.162;2023-04-25T01:15:03;100058.19;;;6.74;72.71
49835;BME280;35729;52.090;13.162;2023-04-25T01:17:32;100060.84;;;6.73;73.29
49835;BME280;35729;52.090;13.162;2023-04-25T01:20:03;100051.34;;;6.68;73.25
49835;BME280;35729;52.090;13.162;2023-04-25T01:22:35;100054.78;;;6.71;73.34
49835;BME280;35729;52.090;13.162;2023-04-25T01:25:11;100054.78;;;6.71;73.20
49835;BME280;35729;52.090;13.162;2023-04-25T01:27:40;100053.94;;;6.70;73.38
49835;BME280;35729;52.090;13.162;2023-04-25T01:30:09;100060.88;;;6.69;73.56
49835;BME280;35729;52.090;13.162;2023-04-25T01:32:37;100056.56;;;6.68;73.67
49835;BME280;35729;52.090;13.162;2023-04-25T01:35:08;100052.19;;;6.69;73.32
49835;BME280;35729;52.090;13.162;2023-04-25T01:37:40;100051.38;;;6.65;73.37
49835;BME280;35729;52.090;13.162;2023-04-25T01:40:15;100053.06;;;6.69;73.31
49835;BME280;35729;52.090;13.162;2023-04-25T01:42:44;100051.28;;;6.72;73.40
49835;BME280;35729;52.090;13.162;2023-04-25T01:45:13;100054.75;;;6.74;73.33
49835;BME280;35729;52.090;13.162;2023-04-25T01:47:41;100046.91;;;6.74;73.26
49835;BME280;35729;52.090;13.162;2023-04-25T01:50:14;100047.72;;;6.76;72.92
49835;BME280;35729;52.090;13.162;2023-04-25T01:52:46;100049.44;;;6.78;73.12
49835;BME280;35729;52.090;13.162;2023-04-25T01:55:14;100047.69;;;6.79;72.75
49835;BME280;35729;52.090;13.162;2023-04-25T01:57:43;100050.28;;;6.80;72.98
49835;BME280;35729;52.090;13.162;2023-04-25T02:00:12;100052.84;;;6.82;72.85
49835;BME280;35729;52.090;13.162;2023-04-25T02:02:41;100062.41;;;6.83;72.53
49835;BME280;35729;52.090;13.162;2023-04-25T02:05:09;100056.31;;;6.84;72.70
49835;BME280;35729;52.090;13.162;2023-04-25T02:07:38;100061.44;;;6.87;72.67
49835;BME280;35729;52.090;13.162;2023-04-25T02:10:09;100058.84;;;6.87;72.32
49835;BME280;35729;52.090;13.162;2023-04-25T02:12:38;100054.50;;;6.88;72.37
49835;BME280;35729;52.090;13.162;2023-04-25T02:15:07;100062.28;;;6.89;72.36
49835;BME280;35729;52.090;13.162;2023-04-25T02:17:36;100059.69;;;6.89;72.06
49835;BME280;35729;52.090;13.162;2023-04-25T02:20:05;100058.88;;;6.85;72.24
49835;BME280;35729;52.090;13.162;2023-04-25T02:22:34;100055.41;;;6.83;72.34
49835;BME280;35729;52.090;13.162;2023-04-25T02:25:03;100054.59;;;6.81;72.30
49835;BME280;35729;52.090;13.162;2023-04-25T02:27:34;100057.28;;;6.77;72.32
49835;BME280;35729;52.090;13.162;2023-04-25T02:30:04;100058.19;;;6.74;72.45
49835;BME280;35729;52.090;13.162;2023-04-25T02:32:33;100056.50;;;6.72;72.27
49835;BME280;35729;52.090;13.162;2023-04-25T02:35:02;100060.06;;;6.67;72.26
49835;BME280;35729;52.090;13.162;2023-04-25T02:37:31;100055.75;;;6.65;72.29
49835;BME280;35729;52.090;13.162;2023-04-25T02:40:00;100057.53;;;6.61;72.32
49835;BME280;35729;52.090;13.162;2023-04-25T02:42:28;100058.47;;;6.59;72.31
49835;BME280;35729;52.090;13.162;2023-04-25T02:44:59;100051.56;;;6.56;72.31
49835;BME280;35729;52.090;13.162;2023-04-25T02:47:28;100051.59;;;6.55;72.52
49835;BME280;35729;52.090;13.162;2023-04-25T02:49:56;100048.97;;;6.53;72.51
49835;BME280;35729;52.090;13.162;2023-04-25T02:52:25;100040.34;;;6.51;72.28
49835;BME280;35729;52.090;13.162;2023-04-25T02:54:53;100044.69;;;6.50;72.56
49835;BME280;35729;52.090;13.162;2023-04-25T02:57:21;100047.31;;;6.49;72.78
49835;BME280;35729;52.090;13.162;2023-04-25T02:59:50;100048.19;;;6.48;72.67
49835;BME280;35729;52.090;13.162;2023-04-25T03:02:21;100046.47;;;6.47;72.71
49835;BME280;35729;52.090;13.162;2023-04-25T03:04:50;100042.13;;;6.47;72.72
49835;BME280;35729;52.090;13.162;2023-04-25T03:07:19;100034.34;;;6.46;72.74
49835;BME280;35729;52.090;13.162;2023-04-25T03:09:47;100041.25;;;6.47;72.88
49835;BME280;35729;52.090;13.162;2023-04-25T03:12:16;100035.19;;;6.46;72.82
49835;BME280;35729;52.090;13.162;2023-04-25T03:14:44;100037.81;;;6.46;72.86
49835;BME280;35729;52.090;13.162;2023-04-25T03:17:12;100030.00;;;6.45;72.64
49835;BME280;35729;52.090;13.162;2023-04-25T03:19:43;100032.63;;;6.45;72.81
49835;BME280;35729;52.090;13.162;2023-04-25T03:22:12;100028.28;;;6.44;72.74
49835;BME280;35729;52.090;13.162;2023-04-25T03:24:40;100031.75;;;6.44;72.83
49835;BME280;35729;52.090;13.162;2023-04-25T03:27:09;100029.16;;;6.43;73.08
49835;BME280;35729;52.090;13.162;2023-04-25T03:29:37;100036.13;;;6.42;73.04
49835;BME280;35729;52.090;13.162;2023-04-25T03:32:06;100035.25;;;6.42;73.06
49835;BME280;35729;52.090;13.162;2023-04-25T03:34:34;100038.75;;;6.42;72.89
49835;BME280;35729;52.090;13.162;2023-04-25T03:37:05;100039.59;;;6.43;73.05
49835;BME280;35729;52.090;13.162;2023-04-25T03:39:34;100041.31;;;6.44;73.16
49835;BME280;35729;52.090;13.162;2023-04-25T03:42:03;100036.97;;;6.43;73.00
49835;BME280;35729;52.090;13.162;2023-04-25T03:44:31;100050.91;;;6.43;73.09
49835;BME280;35729;52.090;13.162;2023-04-25T03:47:00;100038.75;;;6.42;73.25
49835;BME280;35729;52.090;13.162;2023-04-25T03:49:28;100040.47;;;6.42;73.22
49835;BME280;35729;52.090;13.162;2023-04-25T03:52:06;100052.63;;;6.43;73.15
49835;BME280;35729;52.090;13.162;2023-04-25T03:54:34;100051.75;;;6.44;73.49
49835;BME280;35729;52.090;13.162;2023-04-25T03:57:03;100063.88;;;6.45;73.22
49835;BME280;35729;52.090;13.162;2023-04-25T03:59:31;100052.59;;;6.46;73.29
49835;BME280;35729;52.090;13.162;2023-04-25T04:01:59;100056.03;;;6.46;73.20
49835;BME280;35729;52.090;13.162;2023-04-25T04:04:28;100056.88;;;6.47;73.32
49835;BME280;35729;52.090;13.162;2023-04-25T04:06:56;100055.16;;;6.47;73.03
49835;BME280;35729;52.090;13.162;2023-04-25T04:09:27;100056.84;;;6.50;73.21
49835;BME280;35729;52.090;13.162;2023-04-25T04:11:56;100067.22;;;6.53;73.17
49835;BME280;35729;52.090;13.162;2023-04-25T04:14:24;100062.00;;;6.55;73.23
49835;BME280;35729;52.090;13.162;2023-04-25T04:16:53;100062.78;;;6.58;73.01
49835;BME280;35729;52.090;13.162;2023-04-25T04:19:21;100067.09;;;6.61;72.77
49835;BME280;35729;52.090;13.162;2023-04-25T04:21:49;100072.28;;;6.64;72.59
49835;BME280;35729;52.090;13.162;2023-04-25T04:24:18;100062.66;;;6.67;72.63
49835;BME280;35729;52.090;13.162;2023-04-25T04:26:49;100069.53;;;6.72;72.53
49835;BME280;35729;52.090;13.162;2023-04-25T04:29:18;100074.69;;;6.75;72.21
49835;BME280;35729;52.090;13.162;2023-04-25T04:31:48;100071.16;;;6.77;72.36
49835;BME280;35729;52.090;13.162;2023-04-25T04:34:18;100070.28;;;6.80;72.03
49835;BME280;35729;52.090;13.162;2023-04-25T04:36:46;100067.59;;;6.83;72.23
49835;BME280;35729;52.090;13.162;2023-04-25T04:39:14;100071.06;;;6.85;71.96
49835;BME280;35729;52.090;13.162;2023-04-25T04:41:43;100076.25;;;6.87;72.10
49835;BME280;35729;52.090;13.162;2023-04-25T04:44:14;100070.16;;;6.88;71.96
49835;BME280;35729;52.090;13.162;2023-04-25T04:46:42;100073.53;;;6.91;71.73
49835;BME280;35729;52.090;13.162;2023-04-25T04:49:12;100075.25;;;6.94;71.62
49835;BME280;35729;52.090;13.162;2023-04-25T04:51:40;100083.00;;;6.97;71.79
49835;BME280;35729;52.090;13.162;2023-04-25T04:54:10;100080.41;;;6.97;71.66
49835;BME280;35729;52.090;13.162;2023-04-25T04:56:38;100083.81;;;7.00;71.63
49835;BME280;35729;52.090;13.162;2023-04-25T04:59:07;100082.03;;;7.03;71.56
49835;BME280;35729;52.090;13.162;2023-04-25T05:01:38;100091.59;;;7.05;71.35
49835;BME280;35729;52.090;13.162;2023-04-25T05:04:06;100080.22;;;7.08;71.31
49835;BME280;35729;52.090;13.162;2023-04-25T05:06:35;100081.97;;;7.07;71.44
49835;BME280;35729;52.090;13.162;2023-04-25T05:09:03;100091.50;;;7.08;71.42
49835;BME280;35729;52.090;13.162;2023-04-25T05:11:32;100090.66;;;7.08;71.33
49835;BME280;35729;52.090;13.162;2023-04-25T05:14:00;100082.84;;;7.06;71.42
49835;BME280;35729;52.090;13.162;2023-04-25T05:16:28;100090.66;;;7.08;71.25
49835;BME280;35729;52.090;13.162;2023-04-25T05:18:59;100083.63;;;7.11;71.38
49835;BME280;35729;52.090;13.162;2023-04-25T05:21:28;100077.47;;;7.15;71.26
49835;BME280;35729;52.090;13.162;2023-04-25T05:23:56;100078.28;;;7.19;71.13
49835;BME280;35729;52.090;13.162;2023-04-25T05:26:25;100084.28;;;7.23;71.08
49835;BME280;35729;52.090;13.162;2023-04-25T05:28:56;100087.69;;;7.26;70.86
49835;BME280;35729;52.090;13.162;2023-04-25T05:31:25;100087.66;;;7.29;70.61
49835;BME280;35729;52.090;13.162;2023-04-25T05:33:54;100082.38;;;7.32;70.59
49835;BME280;35729;52.090;13.162;2023-04-25T05:36:25;100095.38;;;7.36;70.45
49835;BME280;35729;52.090;13.162;2023-04-25T05:38:53;100084.03;;;7.38;70.45
49835;BME280;35729;52.090;13.162;2023-04-25T05:41:22;100102.19;;;7.44;70.46
49835;BME280;35729;52.090;13.162;2023-04-25T05:43:50;100103.88;;;7.47;70.12
49835;BME280;35729;52.090;13.162;2023-04-25T05:46:19;100097.72;;;7.49;70.10
49835;BME280;35729;52.090;13.162;2023-04-25T05:48:47;100101.97;;;7.54;69.98
49835;BME280;35729;52.090;13.162;2023-04-25T05:51:15;100103.69;;;7.56;69.81
49835;BME280;35729;52.090;13.162;2023-04-25T05:53:47;100103.69;;;7.56;69.62
49835;BME280;35729;52.090;13.162;2023-04-25T05:56:15;100098.44;;;7.56;69.72
49835;BME280;35729;52.090;13.162;2023-04-25T05:58:43;100095.78;;;7.59;69.66
49835;BME280;35729;52.090;13.162;2023-04-25T06:01:12;100089.66;;;7.60;69.66
49835;BME280;35729;52.090;13.162;2023-04-25T06:03:41;100095.72;;;7.62;69.49
49835;BME280;35729;52.090;13.162;2023-04-25T06:06:11;100095.66;;;7.65;69.70
49835;BME280;35729;52.090;13.162;2023-04-25T06:08:39;100105.22;;;7.66;69.46
49835;BME280;35729;52.090;13.162;2023-04-25T06:11:10;100100.81;;;7.69;69.23
49835;BME280;35729;52.090;13.162;2023-04-25T06:13:39;100099.88;;;7.73;69.52
49835;BME280;35729;52.090;13.162;2023-04-25T06:16:07;100102.31;;;7.80;69.43
49835;BME280;35729;52.090;13.162;2023-04-25T06:18:36;100096.97;;;7.87;69.39
49835;BME280;35729;52.090;13.162;2023-04-25T06:21:04;100115.03;;;7.96;69.02
49835;BME280;35729;52.090;13.162;2023-04-25T06:23:33;100115.00;;;7.99;68.87
49835;BME280;35729;52.090;13.162;2023-04-25T06:26:01;100118.47;;;7.99;69.01
49835;BME280;35729;52.090;13.162;2023-04-25T06:28:32;100121.06;;;7.99;68.72
49835;BME280;35729;52.090;13.162;2023-04-25T06:31:00;100110.66;;;7.98;68.91
49835;BME280;35729;52.090;13.162;2023-04-25T06:33:29;100110.59;;;8.01;69.19
49835;BME280;35729;52.090;13.162;2023-04-25T06:35:57;100117.44;;;8.07;69.20
49835;BME280;35729;52.090;13.162;2023-04-25T06:38:26;100119.06;;;8.12;69.42
49835;BME280;35729;52.090;13.162;2023-04-25T06:40:54;100132.13;;;8.12;69.14
49835;BME280;35729;52.090;13.162;2023-04-25T06:43:23;100118.13;;;8.15;69.08
49835;BME280;35729;52.090;13.162;2023-04-25T06:45:54;100119.94;;;8.13;69.17
49835;BME280;35729;52.090;13.162;2023-04-25T06:48:22;100127.72;;;8.14;69.22
49835;BME280;35729;52.090;13.162;2023-04-25T06:50:50;100119.00;;;8.15;69.00
49835;BME280;35729;52.090;13.162;2023-04-25T06:53:19;100132.91;;;8.16;69.11
49835;BME280;35729;52.090;13.162;2023-04-25T06:55:47;100125.84;;;8.21;68.86
49835;BME280;35729;52.090;13.162;2023-04-25T06:58:16;100128.41;;;8.24;68.57
49835;BME280;35729;52.090;13.162;2023-04-25T07:00:44;100118.75;;;8.28;68.79
49835;BME280;35729;52.090;13.162;2023-04-25T07:03:15;100137.00;;;8.29;68.53
49835;BME280;35729;52.090;13.162;2023-04-25T07:05:44;100129.94;;;8.33;68.59
49835;BME280;35729;52.090;13.162;2023-04-25T07:08:13;100129.88;;;8.36;68.72
49835;BME280;35729;52.090;13.162;2023-04-25T07:10:41;100120.16;;;8.41;68.37
49835;BME280;35729;52.090;13.162;2023-04-25T07:13:11;100133.16;;;8.46;68.39
49835;BME280;35729;52.090;13.162;2023-04-25T07:15:39;100127.84;;;8.49;68.25
49835;BME280;35729;52.090;13.162;2023-04-25T07:18:08;100140.94;;;8.49;68.00
49835;BME280;35729;52.090;13.162;2023-04-25T07:20:39;100137.53;;;8.45;68.10
49835;BME280;35729;52.090;13.162;2023-04-25T07:23:07;100148.84;;;8.46;68.22
49835;BME280;35729;52.090;13.162;2023-04-25T07:25:36;100141.06;;;8.43;68.31
49835;BME280;35729;52.090;13.162;2023-04-25T07:28:04;100146.19;;;8.47;68.52
49835;BME280;35729;52.090;13.162;2023-04-25T07:30:33;100162.78;;;8.45;68.83
49835;BME280;35729;52.090;13.162;2023-04-25T07:33:02;100150.59;;;8.44;68.77
49835;BME280;35729;52.090;13.162;2023-04-25T07:35:30;100161.06;;;8.44;68.86
49835;BME280;35729;52.090;13.162;2023-04-25T07:38:01;100145.50;;;8.38;69.50
49835;BME280;35729;52.090;13.162;2023-04-25T07:40:36;100160.50;;;8.29;69.88
49835;BME280;35729;52.090;13.162;2023-04-25T07:43:04;100182.41;;;8.24;70.22
49835;BME280;35729;52.090;13.162;2023-04-25T07:45:33;100189.50;;;8.17;70.31
49835;BME280;35729;52.090;13.162;2023-04-25T07:48:01;100180.03;;;8.13;70.98
49835;BME280;35729;52.090;13.162;2023-04-25T07:50:31;100184.41;;;8.11;71.30
49835;BME280;35729;52.090;13.162;2023-04-25T07:53:02;100190.59;;;8.07;72.52
49835;BME280;35729;52.090;13.162;2023-04-25T07:55:30;100195.06;;;8.02;72.82
49835;BME280;35729;52.090;13.162;2023-04-25T07:57:59;100190.03;;;7.92;73.95
49835;BME280;35729;52.090;13.162;2023-04-25T08:00:28;100193.72;;;7.80;76.20
49835;BME280;35729;52.090;13.162;2023-04-25T08:02:56;100203.50;;;7.69;77.84
49835;BME280;35729;52.090;13.162;2023-04-25T08:05:25;100208.94;;;7.58;77.49
49835;BME280;35729;52.090;13.162;2023-04-25T08:07:53;100216.03;;;7.50;79.04
49835;BME280;35729;52.090;13.162;2023-04-25T08:10:24;100207.50;;;7.40;79.95
49835;BME280;35729;52.090;13.162;2023-04-25T08:12:53;100209.38;;;7.32;80.56
49835;BME280;35729;52.090;13.162;2023-04-25T08:15:21;100219.03;;;7.25;81.01
49835;BME280;35729;52.090;13.162;2023-04-25T08:17:50;100208.69;;;7.21;81.60
49835;BME280;35729;52.090;13.162;2023-04-25T08:20:19;100219.22;;;7.16;82.75
49835;BME280;35729;52.090;13.162;2023-04-25T08:22:47;100227.97;;;7.12;82.99
49835;BME280;35729;52.090;13.162;2023-04-25T08:25:16;100241.97;;;7.06;83.65
49835;BME280;35729;52.090;13.162;2023-04-25T08:27:47;100222.88;;;7.03;83.78
49835;BME280;35729;52.090;13.162;2023-04-25T08:30:15;100231.56;;;7.05;84.42
49835;BME280;35729;52.090;13.162;2023-04-25T08:32:50;100232.34;;;7.10;84.33
49835;BME280;35729;52.090;13.162;2023-04-25T08:35:19;100226.22;;;7.12;84.71
49835;BME280;35729;52.090;13.162;2023-04-25T08:37:48;100243.44;;;7.23;84.68
49835;BME280;35729;52.090;13.162;2023-04-25T08:40:17;100231.19;;;7.29;84.27
49835;BME280;35729;52.090;13.162;2023-04-25T08:42:53;100243.25;;;7.35;83.50
49835;BME280;35729;52.090;13.162;2023-04-25T08:45:23;100242.31;;;7.39;82.47
49835;BME280;35729;52.090;13.162;2023-04-25T08:47:52;100237.81;;;7.47;82.78
49835;BME280;35729;52.090;13.162;2023-04-25T08:50:23;100255.03;;;7.59;83.34
49835;BME280;35729;52.090;13.162;2023-04-25T08:52:53;100255.75;;;7.68;82.15
49835;BME280;35729;52.090;13.162;2023-04-25T08:55:29;100258.22;;;7.75;81.79
49835;BME280;35729;52.090;13.162;2023-04-25T08:58:01;100259.00;;;7.80;80.42
49835;BME280;35729;52.090;13.162;2023-04-25T09:00:29;100279.00;;;7.83;80.34
49835;BME280;35729;52.090;13.162;2023-04-25T09:02:58;100264.19;;;7.83;79.17
49835;BME280;35729;52.090;13.162;2023-04-25T09:05:28;100265.00;;;7.86;80.22
49835;BME280;35729;52.090;13.162;2023-04-25T09:07:56;100268.38;;;7.92;80.54
49835;BME280;35729;52.090;13.162;2023-04-25T09:10:26;100263.94;;;7.96;77.41
49835;BME280;35729;52.090;13.162;2023-04-25T09:13:05;100279.47;;;8.04;74.24
49835;BME280;35729;52.090;13.162;2023-04-25T09:15:46;100287.09;;;8.16;75.17
49835;BME280;35729;52.090;13.162;2023-04-25T09:18:22;100279.91;;;8.27;70.26
49835;BME280;35729;52.090;13.162;2023-04-25T09:20:53;100273.59;;;8.39;71.59
49835;BME280;35729;52.090;13.162;2023-04-25T09:23:22;100269.88;;;8.51;71.99
49835;BME280;35729;52.090;13.162;2023-04-25T09:25:52;100273.09;;;8.64;69.95
49835;BME280;35729;52.090;13.162;2023-04-25T09:28:27;100275.53;;;8.72;64.84
49835;BME280;35729;52.090;13.162;2023-04-25T09:30:55;100277.09;;;8.82;65.07
49835;BME280;35729;52.090;13.162;2023-04-25T09:33:28;100268.13;;;8.92;65.82
49835;BME280;35729;52.090;13.162;2023-04-25T09:36:02;100270.53;;;9.02;62.26
49835;BME280;35729;52.090;13.162;2023-04-25T09:38:32;100285.13;;;9.12;65.46
49835;BME280;35729;52.090;13.162;2023-04-25T09:41:08;100286.75;;;9.18;62.77
49835;BME280;35729;52.090;13.162;2023-04-25T09:43:39;100291.91;;;9.21;60.84
49835;BME280;35729;52.090;13.162;2023-04-25T09:46:09;100298.91;;;9.20;59.67
49835;BME280;35729;52.090;13.162;2023-04-25T09:48:37;100290.31;;;9.15;57.78
49835;BME280;35729;52.090;13.162;2023-04-25T09:51:13;100300.81;;;9.12;55.45
49835;BME280;35729;52.090;13.162;2023-04-25T09:53:48;100299.78;;;9.19;60.64
49835;BME280;35729;52.090;13.162;2023-04-25T09:56:18;100311.09;;;9.21;56.62
49835;BME280;35729;52.090;13.162;2023-04-25T09:58:52;100302.38;;;9.21;58.17
49835;BME280;35729;52.090;13.162;2023-04-25T10:01:22;100316.38;;;9.18;58.60
49835;BME280;35729;52.090;13.162;2023-04-25T10:03:52;100322.69;;;9.09;56.74
49835;BME280;35729;52.090;13.162;2023-04-25T10:06:25;100315.75;;;9.07;59.30
49835;BME280;35729;52.090;13.162;2023-04-25T10:08:55;100322.81;;;9.03;60.08
49835;BME280;35729;52.090;13.162;2023-04-25T10:11:24;100312.34;;;9.03;60.54
49835;BME280;35729;52.090;13.162;2023-04-25T10:13:56;100327.16;;;9.04;58.73
49835;BME280;35729;52.090;13.162;2023-04-25T10:16:25;100314.00;;;9.09;60.01
49835;BME280;35729;52.090;13.162;2023-04-25T10:18:54;100325.22;;;9.14;57.55
49835;BME280;35729;52.090;13.162;2023-04-25T10:21:24;100305.88;;;9.21;59.20
49835;BME280;35729;52.090;13.162;2023-04-25T10:23:56;100314.47;;;9.26;59.34
49835;BME280;35729;52.090;13.162;2023-04-25T10:26:25;100312.56;;;9.33;57.54
49835;BME280;35729;52.090;13.162;2023-04-25T10:29:00;100322.88;;;9.39;56.10
49835;BME280;35729;52.090;13.162;2023-04-25T10:31:30;100326.22;;;9.46;56.93
49835;BME280;35729;52.090;13.162;2023-04-25T10:33:59;100316.34;;;9.57;58.12
49835;BME280;35729;52.090;13.162;2023-04-25T10:36:31;100328.44;;;9.61;57.17
49835;BME280;35729;52.090;13.162;2023-04-25T10:39:04;100325.69;;;9.69;57.68
49835;BME280;35729;52.090;13.162;2023-04-25T10:41:46;100323.00;;;9.71;54.26
49835;BME280;35729;52.090;13.162;2023-04-25T10:44:18;100330.91;;;9.69;55.15
49835;BME280;35729;52.090;13.162;2023-04-25T10:46:47;100335.31;;;9.67;56.50
49835;BME280;35729;52.090;13.162;2023-04-25T10:49:29;100339.84;;;9.60;52.30
49835;BME280;35729;52.090;13.162;2023-04-25T10:52:14;100331.13;;;9.60;52.74
49835;BME280;35729;52.090;13.162;2023-04-25T10:54:46;100334.53;;;9.64;54.81
49835;BME280;35729;52.090;13.162;2023-04-25T10:57:36;100331.81;;;9.67;52.74
49835;BME280;35729;52.090;13.162;2023-04-25T11:00:10;100324.06;;;9.64;51.29
49835;BME280;35729;52.090;13.162;2023-04-25T11:02:48;100331.06;;;9.63;53.24
49835;BME280;35729;52.090;13.162;2023-04-25T11:05:22;100332.81;;;9.62;52.92
49835;BME280;35729;52.090;13.162;2023-04-25T11:07:52;100340.63;;;9.64;51.91
49835;BME280;35729;52.090;13.162;2023-04-25T11:10:25;100338.13;;;9.59;50.75
49835;BME280;35729;52.090;13.162;2023-04-25T11:12:54;100341.63;;;9.58;49.12
49835;BME280;35729;52.090;13.162;2023-04-25T11:15:26;100333.75;;;9.60;50.77
49835;BME280;35729;52.090;13.162;2023-04-25T11:17:55;100343.22;;;9.66;51.94
49835;BME280;35729;52.090;13.162;2023-04-25T11:20:26;100339.66;;;9.68;51.72
49835;BME280;35729;52.090;13.162;2023-04-25T11:22:57;100346.63;;;9.69;52.68
49835;BME280;35729;52.090;13.162;2023-04-25T11:25:26;100360.88;;;9.57;51.19
49835;BME280;35729;52.090;13.162;2023-04-25T11:27:55;100357.53;;;9.51;52.35
49835;BME280;35729;52.090;13.162;2023-04-25T11:30:28;100363.75;;;9.47;49.98
49835;BME280;35729;52.090;13.162;2023-04-25T11:32:57;100365.81;;;9.32;50.27
49835;BME280;35729;52.090;13.162;2023-04-25T11:35:25;100358.06;;;9.27;51.79
49835;BME280;35729;52.090;13.162;2023-04-25T11:37:54;100378.19;;;9.25;52.56
49835;BME280;35729;52.090;13.162;2023-04-25T11:40:22;100379.03;;;9.26;52.62
49835;BME280;35729;52.090;13.162;2023-04-25T11:42:51;100377.25;;;9.28;52.37
49835;BME280;35729;52.090;13.162;2023-04-25T11:45:20;100371.97;;;9.29;52.37
49835;BME280;35729;52.090;13.162;2023-04-25T11:47:51;100371.03;;;9.32;51.07
49835;BME280;35729;52.090;13.162;2023-04-25T11:50:19;100373.47;;;9.40;51.69
49835;BME280;35729;52.090;13.162;2023-04-25T11:52:48;100379.44;;;9.48;51.97
49835;BME280;35729;52.090;13.162;2023-04-25T11:55:19;100380.09;;;9.56;49.20
49835;BME280;35729;52.090;13.162;2023-04-25T11:57:49;100389.44;;;9.68;50.82
49835;BME280;35729;52.090;13.162;2023-04-25T12:00:19;100383.22;;;9.72;48.40
49835;BME280;35729;52.090;13.162;2023-04-25T12:02:54;100376.16;;;9.76;47.76
49835;BME280;35729;52.090;13.162;2023-04-25T12:05:24;100386.59;;;9.77;49.05
49835;BME280;35729;52.090;13.162;2023-04-25T12:07:54;100373.38;;;9.82;49.94
49835;BME280;35729;52.090;13.162;2023-04-25T12:10:24;100398.50;;;9.89;49.71
49835;BME280;35729;52.090;13.162;2023-04-25T12:12:53;100387.09;;;9.92;48.57
49835;BME280;35729;52.090;13.162;2023-04-25T12:15:24;100409.91;;;9.88;46.24
49835;BME280;35729;52.090;13.162;2023-04-25T12:17:55;100390.88;;;9.80;46.67
49835;BME280;35729;52.090;13.162;2023-04-25T12:20:25;100388.41;;;9.74;48.26
49835;BME280;35729;52.090;13.162;2023-04-25T12:22:53;100398.84;;;9.75;47.98
49835;BME280;35729;52.090;13.162;2023-04-25T12:25:35;100390.22;;;9.72;44.61
49835;BME280;35729;52.090;13.162;2023-04-25T12:28:15;100392.84;;;9.72;46.21
49835;BME280;35729;52.090;13.162;2023-04-25T12:30:58;100394.53;;;9.74;45.05
49835;BME280;35729;52.090;13.162;2023-04-25T12:33:31;100400.72;;;9.72;47.00
49835;BME280;35729;52.090;13.162;2023-04-25T12:36:00;100409.41;;;9.72;47.40
49835;BME280;35729;52.090;13.162;2023-04-25T12:38:30;100411.16;;;9.73;46.16
49835;BME280;35729;52.090;13.162;2023-04-25T12:41:00;100414.63;;;9.74;44.67
49835;BME280;35729;52.090;13.162;2023-04-25T12:43:28;100413.69;;;9.76;46.84
49835;BME280;35729;52.090;13.162;2023-04-25T12:45:57;100416.34;;;9.75;45.52
49835;BME280;35729;52.090;13.162;2023-04-25T12:48:25;100430.47;;;9.69;45.54
49835;BME280;35729;52.090;13.162;2023-04-25T12:50:56;100416.66;;;9.61;45.80
49835;BME280;35729;52.090;13.162;2023-04-25T12:53:25;100428.16;;;9.54;44.92
49835;BME280;35729;52.090;13.162;2023-04-25T12:55:54;100431.78;;;9.48;46.41
49835;BME280;35729;52.090;13.162;2023-04-25T12:58:22;100423.06;;;9.48;45.46
49835;BME280;35729;52.090;13.162;2023-04-25T13:00:51;100424.84;;;9.47;45.82
49835;BME280;35729;52.090;13.162;2023-04-25T13:03:19;100418.75;;;9.45;45.50